Ginys del Meteocat

Dades de l'estació automàtica Tírvia

?
?
Resum diari 22:30 TU
Dades diàries de l'estació meteorològica
Temperatura mitjana 1.6 °C
Temperatura màxima 10.1 °C 14:45 TU
Temperatura mínima -1.0 °C 22:25 TU
Humitat relativa mitjana 93%
Precipitació acumulada 0.0 mm
Ratxa màxima del vent (6 m) 8.6 km/h - 25º 19:23 TU
Pressió atmosfèrica mitjana 1024.9 hPa

El tram horari està expressat en Temps Universal (TU). Cal sumar una hora en horari d'hivern i dues en horari d'estiu per passar a l'hora oficial.

Tírvia

Metadades estació meteorol´gica
Municipi Tírvia
Comarca Pallars Sobirà
Altitud 954 m
Data alta 11.01.2018
Estat actual Operativa
Dades de període
Període
TU
TM
°C
TX
°C
TN
°C
HRM
%
PPT
mm
VVM (6 m)
km/h
DVM (6 m)
graus
VVX (6 m)
km/h
PM
hPa
00:00 - 00:30 0.8 1.0 0.5 98 0.0 2.2 141 5.8 1026.9
00:30 - 01:00 0.6 0.8 0.4 98 0.0 1.4 62 5.8 1026.8
01:00 - 01:30 0.3 0.8 0.1 98 0.0 0.4 353 2.9 1026.7
01:30 - 02:00 0.3 0.6 0.1 98 0.0 1.1 128 4.0 1026.7
02:00 - 02:30 0.4 0.6 0.2 99 0.0 0.7 164 3.6 1026.5
02:30 - 03:00 0.4 0.7 0.1 99 0.0 1.8 30 6.1 1026.3
03:00 - 03:30 0.5 0.7 0.2 99 0.0 1.1 112 5.0 1026.0
03:30 - 04:00 0.3 0.4 0.3 99 0.0 1.1 67 4.3 1025.9
04:00 - 04:30 0.5 0.6 0.3 99 0.0 0.7 88 4.3 1025.4
04:30 - 05:00 0.0 0.2 -0.2 99 0.0 1.1 66 3.2 1025.6
05:00 - 05:30 0.2 0.4 0.0 99 0.0 0.4 149 5.4 1025.6
05:30 - 06:00 0.5 0.7 0.3 99 0.0 0.4 77 4.0 1025.4
06:00 - 06:30 0.6 0.7 0.5 99 0.0 0.7 91 3.2 1025.5
06:30 - 07:00 0.3 0.5 0.2 99 0.0 1.8 51 6.5 1025.8
07:00 - 07:30 0.0 0.2 -0.2 99 0.0 1.4 158 6.8 1025.9
07:30 - 08:00 0.0 0.1 -0.2 99 0.0 0.7 129 5.0 1026.1
08:00 - 08:30 0.0 0.2 -0.2 99 0.0 1.1 123 5.4 1026.2
08:30 - 09:00 0.1 0.3 0.0 99 0.0 0.4 136 3.6 1026.3
09:00 - 09:30 0.3 0.8 -0.1 99 0.0 1.1 312 4.7 1026.2
09:30 - 10:00 0.6 1.1 0.1 99 0.0 0.4 274 2.9 1026.2
10:00 - 10:30 0.8 1.3 0.4 99 0.0 0.7 132 3.6 1026.2
10:30 - 11:00 0.9 1.0 0.7 98 0.0 1.1 188 4.3 1026.1
11:00 - 11:30 1.9 2.5 1.0 97 0.0 0.4 186 2.9 1025.3
11:30 - 12:00 2.6 3.1 2.0 92 0.0 0.4 299 2.5 1024.5
12:00 - 12:30 3.9 5.0 3.1 85 0.0 0.4 286 2.5 1023.5
12:30 - 13:00 5.4 6.2 4.1 76 0.0 0.4 285 4.3 1022.5
13:00 - 13:30 4.6 5.3 4.0 81 0.0 0.0 337 2.2 1022.4
13:30 - 14:00 6.1 7.4 4.6 73 0.0 0.7 264 2.5 1021.5
14:00 - 14:30 5.8 6.2 5.5 76 0.0 1.4 334 3.6 1021.4
14:30 - 15:00 8.6 10.1 6.2 62 0.0 0.0 182 1.1 1020.1
15:00 - 15:30 6.7 7.4 5.6 68 0.0 0.0 332 1.8 1020.9
15:30 - 16:00 4.8 5.4 4.2 78 0.0 0.0 0 0.0 1021.7
16:00 - 16:30 3.9 4.2 3.6 84 0.0 0.0 4 1.1 1022.2
16:30 - 17:00 3.1 3.6 2.5 91 0.0 0.4 280 2.5 1022.6
17:00 - 17:30 2.4 2.5 2.2 95 0.0 0.4 198 3.2 1023.0
17:30 - 18:00 2.0 2.2 1.8 95 0.0 0.4 69 2.5 1023.3
18:00 - 18:30 1.6 1.8 1.3 96 0.0 0.4 154 2.5 1023.8
18:30 - 19:00 1.2 1.4 1.0 94 0.0 0.7 151 4.3 1024.4
19:00 - 19:30 0.9 1.0 0.7 95 0.0 1.1 27 8.6 1024.8
19:30 - 20:00 0.4 0.7 0.2 96 0.0 1.1 157 4.0 1025.3
20:00 - 20:30 0.1 0.4 -0.1 97 0.0 1.1 29 3.6 1025.5
20:30 - 21:00 0.0 0.3 -0.1 97 0.0 0.4 166 2.9 1025.9
21:00 - 21:30 -0.4 0.0 -0.6 97 0.0 0.4 357 2.5 1026.3
21:30 - 22:00 -0.5 -0.2 -0.8 98 0.0 0.7 24 6.5 1026.5
22:00 - 22:30 -0.7 -0.5 -1.0 98 0.0 0.0 108 2.5 1026.5
22:30 - 23:00 -0.7 -0.5 -0.9 98 0.0 0.7 11 4.0 1026.2
23:00 - 23:30 (s/d) (s/d) (s/d) (s/d) (s/d) (s/d) (s/d) (s/d) (s/d)

Les dades en taronja només han passat un control de qualitat automàtic. Resta pendent la seva validació definitiva.